Time;durP1;ratioP1;P1;durP2;ratioP2;P2;SDS_P1;SDS_P2;PMS_P1;PMS_P2;Temp;Humidity;BMP_temperature;BMP_pressure;BME280_temperature;BME280_humidity;BME280_pressure;Samples;Min_cycle;Max_cycle;Signal;HPM_P1;HPM_P2
2023/01/03 00:01:55;;;;;;;3.97;1.38;;;;;;;7.34;100.00;100103.13;5101885;28;20067;-80
2023/01/03 00:04:22;;;;;;;1.60;1.20;;;;;;;7.39;100.00;100097.28;5100658;28;20059;-80
2023/01/03 00:06:51;;;;;;;1.77;1.40;;;;;;;7.39;100.00;100092.75;5097254;28;20063;-80
2023/01/03 00:09:19;;;;;;;1.65;1.35;;;;;;;7.46;100.00;100103.84;5101304;28;20054;-80
2023/01/03 00:14:35;;;;;;;1.98;1.45;;;;;;;7.49;100.00;100114.38;5102566;28;20496;-80
2023/01/03 00:17:03;;;;;;;2.40;1.40;;;;;;;7.36;100.00;100117.38;5101972;28;20058;-80
2023/01/03 00:19:35;;;;;;;1.92;1.40;;;;;;;7.32;100.00;100107.81;5098002;28;20066;-80
2023/01/03 00:22:01;;;;;;;2.13;1.30;;;;;;;7.55;100.00;100142.72;5099530;28;20138;-80
2023/01/03 00:24:28;;;;;;;2.67;1.48;;;;;;;7.30;100.00;100114.38;5100877;28;20064;-80
2023/01/03 00:26:54;;;;;;;2.03;1.27;;;;;;;7.34;100.00;100115.81;5100283;28;20048;-80
2023/01/03 00:29:21;;;;;;;1.70;1.30;;;;;;;7.41;100.00;100125.91;5098366;28;20069;-80
2023/01/03 00:31:49;;;;;;;1.23;1.10;;;;;;;7.34;100.00;100129.31;5099058;28;20086;-80
2023/01/03 00:34:16;;;;;;;1.83;1.40;;;;;;;7.36;100.00;100130.03;5096156;27;20055;-80
2023/01/03 00:36:42;;;;;;;5.30;1.60;;;;;;;7.46;100.00;100133.59;5103710;28;20054;-80
2023/01/03 00:39:10;;;;;;;1.13;1.00;;;;;;;7.29;100.00;100102.69;5099865;28;20051;-80
2023/01/03 00:41:37;;;;;;;2.45;1.40;;;;;;;7.26;100.00;100111.09;5097453;28;20434;-80
2023/01/03 00:44:04;;;;;;;1.42;1.10;;;;;;;7.24;100.00;100107.66;5099560;28;20059;-80
2023/01/03 00:46:31;;;;;;;2.65;1.33;;;;;;;7.31;100.00;100129.59;5100478;28;20052;-80
2023/01/03 00:48:59;;;;;;;1.48;1.10;;;;;;;7.15;100.00;100113.91;5101556;28;20469;-80
2023/01/03 00:51:27;;;;;;;1.20;1.00;;;;;;;7.23;100.00;100122.19;5102017;28;20040;-80
2023/01/03 00:53:56;;;;;;;6.60;1.60;;;;;;;7.20;100.00;100127.88;5094717;28;20058;-80
2023/01/03 00:56:24;;;;;;;2.85;1.48;;;;;;;7.24;100.00;100134.72;5107225;28;20060;-80
2023/01/03 00:58:51;;;;;;;3.40;1.35;;;;;;;7.10;100.00;100119.75;5111922;28;21107;-79
2023/01/03 01:01:21;;;;;;;2.85;1.50;;;;;;;7.23;100.00;100133.84;5112989;28;20045;-80
2023/01/03 01:03:50;;;;;;;1.83;1.40;;;;;;;7.21;100.00;100134.97;5110750;28;20418;-80
2023/01/03 01:06:20;;;;;;;1.92;1.30;;;;;;;7.19;100.00;100124.31;5108666;28;20044;-80
2023/01/03 01:08:48;;;;;;;2.17;1.40;;;;;;;7.31;100.00;100146.69;5108674;28;20047;-80
2023/01/03 01:11:16;;;;;;;2.92;1.35;;;;;;;7.27;100.00;100123.59;5106621;28;20047;-80
2023/01/03 01:13:44;;;;;;;2.75;1.38;;;;;;;7.11;100.00;100107.94;5103761;28;20044;-80
2023/01/03 01:16:13;;;;;;;1.23;1.10;;;;;;;7.31;100.00;100137.72;5113560;28;20491;-80
2023/01/03 01:18:41;;;;;;;1.13;1.00;;;;;;;7.11;100.00;100126.03;5112280;28;20048;-79
2023/01/03 01:21:09;;;;;;;3.03;1.95;;;;;;;7.25;100.00;100142.69;5106143;28;20047;-80
2023/01/03 01:23:39;;;;;;;2.92;1.20;;;;;;;7.13;100.00;100122.16;5106073;27;20055;-79
2023/01/03 01:26:07;;;;;;;1.75;1.25;;;;;;;7.07;100.00;100128.97;5105355;28;20050;-80
2023/01/03 01:28:35;;;;;;;1.88;1.42;;;;;;;7.11;100.00;100139.53;5112678;28;20040;-79
2023/01/03 01:31:03;;;;;;;3.05;1.55;;;;;;;7.02;100.00;100136.66;5110665;28;20052;-80
2023/01/03 01:33:32;;;;;;;2.53;1.25;;;;;;;7.08;100.00;100165.00;5104390;28;20518;-79
2023/01/03 01:35:59;;;;;;;2.33;1.10;;;;;;;6.93;100.00;100133.94;5110991;28;20051;-79
2023/01/03 01:38:25;;;;;;;4.45;1.38;;;;;;;6.97;100.00;100143.47;5104249;28;20048;-80
2023/01/03 01:40:55;;;;;;;2.28;1.38;;;;;;;6.89;100.00;100126.13;5104030;28;20055;-79
2023/01/03 01:46:15;;;;;;;4.07;1.70;;;;;;;6.84;100.00;100127.50;5111804;28;20526;-79
2023/01/03 01:48:42;;;;;;;1.83;1.05;;;;;;;7.04;100.00;100164.41;5109814;28;20047;-80
2023/01/03 01:51:10;;;;;;;1.92;1.30;;;;;;;7.11;100.00;100172.84;5106659;28;20507;-79
2023/01/03 01:53:41;;;;;;;2.25;1.30;;;;;;;6.90;100.00;100152.13;5104914;28;20161;-80
2023/01/03 01:56:13;;;;;;;3.72;1.20;;;;;;;6.83;100.00;100150.97;5110085;28;20044;-80
2023/01/03 01:58:42;;;;;;;1.42;1.00;;;;;;;7.01;100.00;100185.47;5112542;28;20499;-80
2023/01/03 02:01:11;;;;;;;2.03;1.27;;;;;;;6.98;100.00;100197.41;5111695;28;20118;-80
2023/01/03 02:03:42;;;;;;;2.03;1.25;;;;;;;7.04;100.00;100186.03;5108898;28;20055;-80
2023/01/03 02:06:12;;;;;;;1.45;1.30;;;;;;;6.86;100.00;100176.88;5105621;28;20048;-80
2023/01/03 02:08:39;;;;;;;1.35;1.15;;;;;;;6.83;100.00;100175.28;5093873;28;20054;-80
2023/01/03 02:11:19;;;;;;;2.55;1.20;;;;;;;6.79;100.00;100171.16;5097022;28;20047;-80
2023/01/03 02:13:57;;;;;;;2.05;1.20;;;;;;;6.88;100.00;100185.69;5111325;28;20501;-79
2023/01/03 02:16:39;;;;;;;2.15;1.50;;;;;;;6.90;100.00;100159.41;5104900;28;20051;-79
2023/01/03 02:19:26;;;;;;;4.45;1.27;;;;;;;6.89;100.00;100163.97;5102308;28;20074;-79
2023/01/03 02:22:11;;;;;;;2.10;1.15;;;;;;;6.77;100.00;100140.69;5091452;28;20048;-80
2023/01/03 02:25:18;;;;;;;2.00;1.20;;;;;;;6.82;100.00;100178.13;5097344;28;20054;-80
2023/01/03 02:28:22;;;;;;;2.63;0.85;;;;;;;6.81;100.00;100193.50;5107744;28;20055;-79
2023/01/03 02:30:54;;;;;;;2.45;1.10;;;;;;;6.63;100.00;100168.94;5104640;28;20476;-80
2023/01/03 02:33:28;;;;;;;1.45;0.85;;;;;;;6.59;100.00;100151.28;5106188;28;20138;-80
2023/01/03 02:36:04;;;;;;;1.42;0.98;;;;;;;6.72;100.00;100183.50;5110779;28;20048;-80
2023/01/03 02:38:46;;;;;;;2.80;1.10;;;;;;;6.73;100.00;100177.97;5108637;28;20047;-80
2023/01/03 02:41:23;;;;;;;2.58;1.02;;;;;;;6.52;100.00;100160.94;5112046;28;20048;-80
2023/01/03 02:43:55;;;;;;;3.13;1.13;;;;;;;6.46;100.00;100172.25;5103358;28;20463;-80
2023/01/03 02:46:27;;;;;;;1.23;0.90;;;;;;;6.44;100.00;100167.00;5110003;28;20055;-80
2023/01/03 02:48:58;;;;;;;1.20;1.10;;;;;;;6.25;100.00;100161.47;5111534;28;20047;-80
2023/01/03 02:51:31;;;;;;;3.03;1.88;;;;;;;6.34;100.00;100180.47;5104632;28;20376;-80
2023/01/03 02:54:00;;;;;;;1.63;1.08;;;;;;;6.25;100.00;100183.97;5110936;28;20399;-80
2023/01/03 02:56:32;;;;;;;1.73;1.17;;;;;;;6.08;100.00;100154.84;5105637;28;20048;-80
2023/01/03 02:59:05;;;;;;;1.70;0.93;;;;;;;5.95;100.00;100153.16;5111180;28;20050;-80
2023/01/03 03:01:35;;;;;;;1.65;1.08;;;;;;;6.04;100.00;100186.66;5107282;28;20040;-80
2023/01/03 03:04:05;;;;;;;1.38;0.90;;;;;;;6.05;100.00;100185.66;5109742;28;20053;-79
2023/01/03 03:06:39;;;;;;;1.45;0.95;;;;;;;5.91;100.00;100162.50;5111348;28;20505;-80
2023/01/03 03:09:05;;;;;;;1.83;1.10;;;;;;;6.02;100.00;100186.78;5110437;28;20051;-80
2023/01/03 03:14:36;;;;;;;1.50;1.10;;;;;;;5.55;100.00;100156.53;5077609;28;20047;-80
2023/01/03 03:17:08;;;;;;;2.75;1.00;;;;;;;5.79;100.00;100201.31;5104246;28;20418;-80
2023/01/03 03:25:19;;;;;;;2.35;0.85;;;;;;;5.75;100.00;100187.25;5106710;28;20181;-80
2023/01/03 03:30:36;;;;;;;1.25;1.00;;;;;;;5.47;100.00;100180.59;5105908;28;20058;-79
2023/01/03 03:33:05;;;;;;;;;;;;;;;5.55;100.00;100180.78;5109588;28;20040;-80
2023/01/03 03:35:36;;;;;;;1.88;0.90;;;;;;;5.49;100.00;100176.78;5097927;28;19931;-80
2023/01/03 03:38:05;;;;;;;1.50;0.90;;;;;;;5.32;100.00;100177.31;5110843;28;20054;-80
2023/01/03 03:46:29;;;;;;;1.65;0.88;;;;;;;5.25;100.00;100181.50;5045144;28;20052;-79
2023/01/03 03:51:54;;;;;;;1.20;1.10;;;;;;;4.79;100.00;100146.53;5108013;28;20062;-80
2023/01/03 03:54:23;;;;;;;1.77;1.13;;;;;;;4.95;100.00;100169.53;5107816;28;20051;-80
2023/01/03 03:56:56;;;;;;;1.40;1.30;;;;;;;5.01;100.00;100181.66;5092691;28;20317;-80
2023/01/03 03:59:24;;;;;;;1.17;0.95;;;;;;;4.82;100.00;100193.94;5107596;28;20052;-80
2023/01/03 04:01:55;;;;;;;1.65;0.98;;;;;;;4.59;100.00;100172.38;5108852;28;20068;-80
2023/01/03 04:04:28;;;;;;;4.55;1.17;;;;;;;4.72;100.00;100176.78;5103470;28;20048;-79
2023/01/03 04:06:55;;;;;;;2.20;1.10;;;;;;;4.75;100.00;100190.00;5106427;28;20043;-80
2023/01/03 04:09:21;;;;;;;1.73;1.10;;;;;;;4.53;100.00;100197.09;5109530;28;20487;-80
2023/01/03 04:11:48;;;;;;;2.65;1.13;;;;;;;4.34;100.00;100186.91;5105470;28;20055;-79
2023/01/03 04:14:14;;;;;;;3.35;1.25;;;;;;;4.52;100.00;100206.16;5109549;28;20054;-79
2023/01/03 04:16:41;;;;;;;1.60;1.02;;;;;;;4.59;100.00;100204.69;5110865;28;20055;-80
2023/01/03 04:19:08;;;;;;;4.00;1.20;;;;;;;4.36;100.00;100203.78;5106787;28;20498;-79
2023/01/03 04:21:36;;;;;;;1.60;0.98;;;;;;;4.45;100.00;100214.84;5104113;28;20048;-79
2023/01/03 04:24:03;;;;;;;5.07;1.63;;;;;;;4.45;100.00;100231.84;5105717;28;20051;-80
2023/01/03 04:26:29;;;;;;;3.13;1.00;;;;;;;4.35;100.00;100203.91;5109558;28;20497;-80
2023/01/03 04:28:56;;;;;;;5.45;1.15;;;;;;;4.23;100.00;100200.31;5107008;28;20149;-79
2023/01/03 04:31:22;;;;;;;0.88;0.88;;;;;;;4.20;100.00;100187.09;5104661;28;20134;-80
2023/01/03 04:33:50;;;;;;;2.88;1.10;;;;;;;4.21;100.00;100178.91;5107525;28;20039;-79
2023/01/03 04:36:17;;;;;;;3.97;1.17;;;;;;;4.19;100.00;100202.41;5097919;28;20453;-80
2023/01/03 04:38:45;;;;;;;2.40;1.10;;;;;;;3.95;100.00;100194.38;5109281;28;20047;-79
2023/01/03 04:41:11;;;;;;;2.13;0.73;;;;;;;4.02;100.00;100195.66;5110146;28;20051;-80
2023/01/03 04:46:22;;;;;;;1.73;0.93;;;;;;;4.17;100.00;100198.13;5108525;28;20054;-80
2023/01/03 04:48:49;;;;;;;1.25;0.88;;;;;;;4.08;100.00;100208.63;5113339;28;20047;-80
2023/01/03 04:51:16;;;;;;;3.40;1.83;;;;;;;4.07;100.00;100227.59;5112529;28;20055;-79
2023/01/03 04:53:42;;;;;;;1.83;1.20;;;;;;;4.01;100.00;100222.66;5102826;28;20044;-79
2023/01/03 04:56:10;;;;;;;1.88;1.00;;;;;;;3.84;100.00;100194.34;5113766;28;20070;-79
2023/01/03 04:58:37;;;;;;;2.72;1.20;;;;;;;3.77;100.00;100202.03;5111986;28;20055;-80
2023/01/03 05:01:06;;;;;;;5.82;0.95;;;;;;;3.81;100.00;100197.25;5113586;28;20054;-80
2023/01/03 05:03:33;;;;;;;1.80;1.17;;;;;;;3.71;100.00;100195.28;5111332;28;20071;-79
2023/01/03 05:06:00;;;;;;;2.90;1.20;;;;;;;3.90;100.00;100235.09;5113774;28;20048;-80
2023/01/03 05:08:27;;;;;;;2.50;1.25;;;;;;;3.92;100.00;100234.13;5111408;28;20051;-79
2023/01/03 05:10:54;;;;;;;1.40;1.00;;;;;;;3.63;100.00;100213.81;5111868;28;20050;-79
2023/01/03 05:13:22;;;;;;;4.32;1.27;;;;;;;3.63;100.00;100212.94;5112636;28;20044;-79
2023/01/03 05:15:49;;;;;;;1.45;1.30;;;;;;;3.71;100.00;100230.22;5106417;28;20085;-80
2023/01/03 05:18:15;;;;;;;2.10;1.13;;;;;;;3.67;100.00;100228.78;5093060;28;20048;-80
2023/01/03 05:26:13;;;;;;;1.67;1.00;;;;;;;3.24;100.00;100207.75;5106020;28;20058;-79
2023/01/03 05:28:43;;;;;;;7.10;1.50;;;;;;;3.40;100.00;100228.09;5113285;28;20040;-79
2023/01/03 05:31:09;;;;;;;1.13;1.02;;;;;;;3.35;100.00;100206.94;5112598;28;20044;-79
2023/01/03 05:33:37;;;;;;;1.48;1.20;;;;;;;3.44;100.00;100187.44;5112436;28;20491;-80
2023/01/03 05:36:04;;;;;;;3.63;1.17;;;;;;;3.26;100.00;100192.34;5106913;28;20043;-79
2023/01/03 05:38:31;;;;;;;1.55;0.82;;;;;;;3.26;100.00;100197.72;5113057;28;20487;-79
2023/01/03 05:40:57;;;;;;;3.30;1.10;;;;;;;3.24;100.00;100207.75;5112322;28;20410;-79
2023/01/03 05:43:24;;;;;;;0.93;0.90;;;;;;;3.21;100.00;100204.41;5111055;28;20055;-80
2023/01/03 05:45:52;;;;;;;3.20;1.80;;;;;;;3.30;100.00;100223.41;5107762;28;20103;-79
2023/01/03 05:48:20;;;;;;;2.35;1.48;;;;;;;3.32;100.00;100244.81;5112793;28;20043;-79
2023/01/03 05:50:47;;;;;;;3.60;1.52;;;;;;;3.25;100.00;100220.22;5108018;28;20407;-79
2023/01/03 05:53:13;;;;;;;1.65;1.13;;;;;;;3.09;100.00;100212.41;5111779;28;20047;-79
2023/01/03 05:55:40;;;;;;;3.70;1.50;;;;;;;3.11;100.00;100221.19;5106151;28;20044;-80
2023/01/03 05:58:07;;;;;;;4.57;1.20;;;;;;;3.06;100.00;100244.88;5092278;28;20056;-79
2023/01/03 06:00:34;;;;;;;1.50;0.93;;;;;;;3.27;100.00;100260.41;5097974;28;20048;-79
2023/01/03 06:03:02;;;;;;;4.65;1.23;;;;;;;3.20;100.00;100268.03;5111940;28;20040;-79
2023/01/03 06:05:28;;;;;;;1.55;1.20;;;;;;;3.02;100.00;100254.09;5112306;28;20047;-80
2023/01/03 06:07:55;;;;;;;3.28;1.50;;;;;;;3.11;100.00;100272.25;5112813;28;20501;-80
2023/01/03 06:10:21;;;;;;;1.77;1.48;;;;;;;2.90;100.00;100223.59;5102364;28;20393;-79
2023/01/03 06:12:48;;;;;;;2.25;1.50;;;;;;;2.83;100.00;100236.63;5111818;28;20130;-80
2023/01/03 06:15:14;;;;;;;4.85;1.67;;;;;;;2.61;100.00;100231.91;5107771;28;20048;-80
2023/01/03 06:17:57;;;;;;;2.15;1.60;;;;;;;2.82;100.00;100250.16;5105065;28;20051;-79
2023/01/03 06:20:26;;;;;;;2.67;1.23;;;;;;;2.74;100.00;100242.66;5104041;28;20559;-79
2023/01/03 06:22:54;;;;;;;2.10;1.40;;;;;;;2.67;100.00;100245.88;5110113;28;20044;-80
2023/01/03 06:25:21;;;;;;;2.40;1.27;;;;;;;2.81;100.00;100251.97;5098631;28;20052;-80
2023/01/03 06:27:48;;;;;;;1.60;1.17;;;;;;;2.96;100.00;100267.97;5110175;28;20048;-79
2023/01/03 06:30:15;;;;;;;2.05;1.45;;;;;;;3.02;100.00;100272.91;5108666;28;20054;-79
2023/01/03 06:32:42;;;;;;;2.72;1.60;;;;;;;2.94;100.00;100245.75;5109220;28;20243;-79
2023/01/03 06:35:09;;;;;;;2.05;1.15;;;;;;;3.05;100.00;100275.38;5097247;28;20058;-79
2023/01/03 06:37:39;;;;;;;1.40;1.30;;;;;;;2.99;100.00;100238.19;5107045;28;20054;-79
2023/01/03 06:40:07;;;;;;;3.35;1.30;;;;;;;2.92;100.00;100247.66;5092484;28;20499;-79
2023/01/03 06:42:41;;;;;;;1.48;1.25;;;;;;;2.94;100.00;100259.19;5092159;28;20046;-79
2023/01/03 06:53:34;;;;;;;4.35;1.73;;;;;;;2.84;100.00;100269.69;5097092;28;20710;-79
2023/01/03 06:56:01;;;;;;;2.38;1.77;;;;;;;2.73;100.00;100283.03;5110903;28;20047;-79
2023/01/03 06:58:27;;;;;;;5.28;1.40;;;;;;;2.60;100.00;100264.22;5111268;28;20048;-78
2023/01/03 07:00:55;;;;;;;7.32;1.83;;;;;;;2.88;100.00;100287.31;5110391;28;20051;-78
2023/01/03 07:03:22;;;;;;;4.60;1.30;;;;;;;2.72;100.00;100263.34;5104823;28;20097;-78
2023/01/03 07:05:49;;;;;;;3.33;1.98;;;;;;;2.61;100.00;100280.22;5101217;28;20044;-80
2023/01/03 07:08:15;;;;;;;7.40;1.90;;;;;;;2.72;100.00;100295.59;5097014;28;20041;-79
2023/01/03 07:10:43;;;;;;;4.75;2.38;;;;;;;2.63;100.00;100299.78;5111012;28;20048;-79
2023/01/03 07:15:54;;;;;;;2.70;1.92;;;;;;;2.67;100.00;100291.53;5108596;28;20537;-79
2023/01/03 07:18:21;;;;;;;2.92;1.77;;;;;;;2.53;100.00;100287.97;5111139;28;20288;-79
2023/01/03 07:20:47;;;;;;;1.42;1.30;;;;;;;2.57;100.00;100312.75;5094954;28;20066;-78
2023/01/03 07:23:17;;;;;;;6.28;1.90;;;;;;;2.26;100.00;100286.19;5105729;27;20406;-82
2023/01/03 07:25:46;;;;;;;3.72;1.90;;;;;;;2.22;100.00;100300.78;5098662;28;20040;-78
2023/01/03 07:28:14;;;;;;;3.20;1.42;;;;;;;2.43;100.00;100314.56;5105113;28;20101;-79
2023/01/03 07:30:42;;;;;;;2.97;1.63;;;;;;;2.22;100.00;100278.47;5097710;28;20048;-79
2023/01/03 07:33:11;;;;;;;4.68;1.92;;;;;;;2.41;100.00;100321.00;5090979;28;20044;-79
2023/01/03 07:35:38;;;;;;;2.75;1.60;;;;;;;2.40;100.00;100312.09;5091955;28;20415;-79
2023/01/03 07:38:05;;;;;;;2.20;1.60;;;;;;;2.38;100.00;100305.97;5106228;28;20734;-79
2023/01/03 07:40:32;;;;;;;2.53;1.75;;;;;;;2.47;100.00;100305.34;5112115;28;20728;-79
2023/01/03 07:45:45;;;;;;;4.13;1.83;;;;;;;2.51;100.00;100327.47;5097776;28;20410;-79
2023/01/03 07:48:13;;;;;;;2.90;2.20;;;;;;;2.60;100.00;100326.81;5092574;28;20066;-79
2023/01/03 07:50:40;;;;;;;2.95;1.92;;;;;;;2.58;100.00;100318.03;5110776;28;20058;-79
2023/01/03 07:53:08;;;;;;;6.88;1.98;;;;;;;2.72;100.00;100321.59;5093025;28;20078;-80
2023/01/03 07:55:36;;;;;;;6.80;2.40;;;;;;;2.97;100.00;100323.44;5096632;28;20058;-78
2023/01/03 07:58:04;;;;;;;4.25;2.28;;;;;;;2.92;100.00;100298.69;5108495;28;20048;-78
2023/01/03 08:00:30;;;;;;;6.22;2.88;;;;;;;2.99;100.00;100302.69;5104655;28;20054;-79
2023/01/03 08:02:57;;;;;;;8.00;2.92;;;;;;;2.77;100.00;100331.06;5109641;28;20043;-78
2023/01/03 08:05:24;;;;;;;5.13;2.63;;;;;;;2.70;100.00;100304.72;5096523;28;20055;-79
2023/01/03 08:07:52;;;;;;;5.25;3.28;;;;;;;2.86;100.00;100324.19;5119863;27;20055;-79
2023/01/03 08:13:17;;;;;;;5.97;3.10;;;;;;;3.22;100.00;100308.25;5110241;28;20144;-80
2023/01/03 08:15:43;;;;;;;5.82;2.88;;;;;;;3.45;100.00;100339.72;5109583;28;20380;-79
2023/01/03 08:18:11;;;;;;;8.73;3.72;;;;;;;3.31;100.00;100338.03;5110654;28;20052;-78
2023/01/03 08:20:37;;;;;;;6.50;3.80;;;;;;;3.33;100.00;100330.69;5113766;28;20044;-78
2023/01/03 08:23:04;;;;;;;8.00;3.90;;;;;;;3.26;100.00;100318.66;5113938;28;20047;-78
2023/01/03 08:25:30;;;;;;;8.82;4.45;;;;;;;3.31;100.00;100342.53;5114616;28;20070;-79
2023/01/03 08:27:57;;;;;;;9.77;4.50;;;;;;;3.38;100.00;100349.19;5114647;28;20056;-79
2023/01/03 08:30:25;;;;;;;7.60;3.35;;;;;;;3.32;100.00;100328.13;5114517;28;20058;-79
2023/01/03 08:32:53;;;;;;;10.32;4.43;;;;;;;3.57;100.00;100356.81;5112092;28;20048;-79
2023/01/03 08:35:21;;;;;;;13.63;6.68;;;;;;;3.47;100.00;100329.69;5114330;28;20131;-79
2023/01/03 08:37:49;;;;;;;7.10;4.57;;;;;;;3.52;100.00;100340.13;5114677;28;20058;-79
2023/01/03 08:40:18;;;;;;;7.28;3.35;;;;;;;3.61;100.00;100370.88;5114520;28;20388;-79
2023/01/03 08:42:46;;;;;;;5.53;3.57;;;;;;;3.51;100.00;100352.72;5113986;28;20044;-79
2023/01/03 08:45:16;;;;;;;8.18;4.05;;;;;;;3.57;100.00;100351.44;5114312;28;20289;-79
2023/01/03 08:47:45;;;;;;;;;;;;;;;3.78;100.00;100375.03;5114823;28;20098;-79
2023/01/03 08:50:12;;;;;;;15.15;5.03;;;;;;;3.72;100.00;100362.91;5106027;28;19919;-79
2023/01/03 08:52:39;;;;;;;4.75;3.40;;;;;;;3.84;100.00;100386.22;5113262;28;20051;-79
2023/01/03 08:55:07;;;;;;;5.97;3.67;;;;;;;3.84;100.00;100362.00;5112589;28;20628;-80
2023/01/03 08:57:33;;;;;;;5.70;3.97;;;;;;;3.70;100.00;100348.69;5113920;28;20142;-80
2023/01/03 09:00:00;;;;;;;6.63;4.30;;;;;;;3.87;100.00;100371.69;5114000;28;20047;-79
2023/01/03 09:02:26;;;;;;;5.70;3.85;;;;;;;3.97;100.00;100361.09;5113435;28;20380;-79
2023/01/03 09:04:54;;;;;;;8.57;4.00;;;;;;;3.96;100.00;100357.56;5113708;28;20421;-78
2023/01/03 09:07:21;;;;;;;6.78;4.00;;;;;;;4.16;100.00;100374.91;5112453;28;20048;-79
2023/01/03 09:09:47;;;;;;;13.07;4.35;;;;;;;4.22;100.00;100384.38;5113789;28;20082;-79
2023/01/03 09:12:14;;;;;;;7.03;3.50;;;;;;;4.11;100.00;100354.69;5113204;28;20055;-80
2023/01/03 09:14:40;;;;;;;10.50;4.30;;;;;;;3.97;100.00;100353.03;5113938;28;20043;-79
2023/01/03 09:17:07;;;;;;;13.57;5.50;;;;;;;4.18;100.00;100381.03;5113916;28;20062;-80
2023/01/03 09:19:33;;;;;;;12.07;5.45;;;;;;;4.06;100.00;100365.78;5106927;27;20344;-80
2023/01/03 09:22:02;;;;;;;11.95;5.50;;;;;;;4.24;100.00;100380.56;5123132;27;20438;-80
2023/01/03 09:24:28;;;;;;;14.43;5.70;;;;;;;4.12;100.00;100362.63;5111683;27;20515;-79
2023/01/03 09:26:55;;;;;;;31.13;9.88;;;;;;;4.29;100.00;100390.13;5111262;28;20063;-78
2023/01/03 09:29:22;;;;;;;10.73;6.35;;;;;;;4.21;100.00;100388.03;5110703;28;20515;-78
2023/01/03 09:31:49;;;;;;;8.35;5.32;;;;;;;4.04;100.00;100365.91;5110982;28;20044;-80
2023/01/03 09:34:15;;;;;;;10.88;5.10;;;;;;;4.12;100.00;100386.00;5109210;28;20051;-79
2023/01/03 09:36:42;;;;;;;24.70;13.43;;;;;;;3.99;100.00;100372.59;5111399;28;20125;-79
2023/01/03 09:39:10;;;;;;;15.38;9.07;;;;;;;4.11;100.00;100403.13;5111121;28;20130;-79
2023/01/03 09:41:39;;;;;;;10.40;6.03;;;;;;;3.97;100.00;100374.53;5109105;28;20402;-79
2023/01/03 09:44:07;;;;;;;14.68;6.60;;;;;;;4.04;100.00;100373.97;5101873;28;20503;-79
2023/01/03 09:46:35;;;;;;;7.30;5.22;;;;;;;4.20;100.00;100395.25;5110855;28;20410;-79
2023/01/03 09:49:04;;;;;;;9.02;5.20;;;;;;;4.20;100.00;100372.84;5110356;28;20040;-79
2023/01/03 10:06:01;;;;;;;11.65;5.75;;;;;;;4.58;100.00;100394.19;5110614;28;20054;-79
2023/01/03 10:08:38;;;;;;;15.10;5.25;;;;;;;4.37;100.00;100364.38;5110720;28;20066;-79
2023/01/03 10:11:08;;;;;;;8.35;5.00;;;;;;;4.52;100.00;100391.97;5110233;28;20056;-79
2023/01/03 10:13:50;;;;;;;18.60;8.55;;;;;;;4.31;100.00;100375.59;5109456;28;20054;-79
2023/01/03 10:16:23;;;;;;;19.40;8.43;;;;;;;4.33;100.00;100373.63;5104067;28;20128;-79
2023/01/03 10:19:08;;;;;;;16.13;8.20;;;;;;;4.43;100.00;100377.34;5109503;28;20044;-79
2023/01/03 10:21:46;;;;;;;12.63;7.30;;;;;;;4.51;100.00;100390.25;5110162;28;20063;-79
2023/01/03 10:24:17;;;;;;;14.77;7.78;;;;;;;4.44;100.00;100388.97;5109272;28;20054;-79
2023/01/03 10:26:45;;;;;;;13.95;6.88;;;;;;;4.61;100.00;100404.72;5109985;28;20082;-79
2023/01/03 10:29:17;;;;;;;24.17;10.45;;;;;;;4.53;100.00;100399.09;5109728;28;20054;-79
2023/01/03 10:32:00;;;;;;;17.98;10.48;;;;;;;4.53;100.00;100372.16;5107707;28;20059;-79
2023/01/03 10:34:27;;;;;;;22.67;10.63;;;;;;;4.63;100.00;100410.00;5108562;28;20047;-79
2023/01/03 10:36:53;;;;;;;18.65;9.60;;;;;;;4.57;100.00;100394.31;5110038;28;20521;-79
2023/01/03 10:39:29;;;;;;;15.10;8.80;;;;;;;4.66;100.00;100395.44;5110116;28;20191;-79
2023/01/03 10:41:59;;;;;;;12.85;7.50;;;;;;;4.81;100.00;100407.75;5109580;28;20043;-79
2023/01/03 10:44:28;;;;;;;12.27;6.55;;;;;;;4.77;100.00;100368.53;5109292;28;20054;-79
2023/01/03 10:46:57;;;;;;;9.85;5.35;;;;;;;5.07;100.00;100394.09;5103406;28;20051;-79
2023/01/03 10:49:25;;;;;;;12.10;4.75;;;;;;;5.10;100.00;100367.78;5108965;28;20373;-79
2023/01/03 10:51:55;;;;;;;12.75;5.47;;;;;;;5.31;100.00;100361.66;5109868;28;20048;-79
2023/01/03 10:54:28;;;;;;;9.77;4.38;;;;;;;5.46;100.00;100364.97;5107659;28;20492;-79
2023/01/03 10:56:55;;;;;;;5.47;3.97;;;;;;;5.51;100.00;100354.69;5109342;28;20040;-80
2023/01/03 10:59:25;;;;;;;22.13;4.55;;;;;;;5.70;100.00;100353.19;5109038;28;20055;-79
2023/01/03 11:02:00;;;;;;;10.27;4.55;;;;;;;5.90;100.00;100382.13;5106900;28;20047;-79
2023/01/03 11:04:28;;;;;;;7.93;4.05;;;;;;;5.91;100.00;100355.97;5107800;28;20051;-80
2023/01/03 11:07:03;;;;;;;8.10;4.35;;;;;;;6.07;100.00;100361.00;5109237;28;20475;-79
2023/01/03 11:09:35;;;;;;;7.85;4.97;;;;;;;6.15;100.00;100370.19;5104060;28;20048;-79
2023/01/03 11:12:05;;;;;;;9.80;4.50;;;;;;;6.15;100.00;100353.13;5108448;28;20055;-80
2023/01/03 11:14:33;;;;;;;;;;;;;;;6.29;100.00;100366.34;5109510;28;20414;-79
2023/01/03 11:17:01;;;;;;;10.25;4.30;;;;;;;6.22;100.00;100339.97;5108645;28;20249;-79
2023/01/03 11:19:29;;;;;;;8.75;3.63;;;;;;;6.45;100.00;100357.81;5108256;28;20043;-78
2023/01/03 11:22:05;;;;;;;11.90;4.05;;;;;;;6.39;100.00;100334.00;5109275;28;20475;-77
2023/01/03 11:24:52;;;;;;;4.40;3.08;;;;;;;6.40;100.00;100332.16;5106759;28;20047;-78
2023/01/03 11:27:30;;;;;;;5.72;3.15;;;;;;;6.42;100.00;100331.06;5101884;28;20055;-78
2023/01/03 11:30:06;;;;;;;7.60;2.92;;;;;;;6.51;100.00;100348.34;5109150;28;20044;-78
2023/01/03 11:32:46;;;;;;;6.38;2.72;;;;;;;6.51;100.00;100338.38;5107828;28;20053;-77
2023/01/03 11:35:31;;;;;;;;;;;;;;;6.63;100.00;100351.84;5109116;28;20396;-78
2023/01/03 11:38:10;;;;;;;4.43;2.10;;;;;;;6.62;100.00;100337.47;5108955;28;20026;-78
2023/01/03 11:41:03;;;;;;;6.00;2.05;;;;;;;6.83;100.00;100350.97;5109252;28;20055;-77
2023/01/03 11:43:46;;;;;;;3.72;2.25;;;;;;;6.83;100.00;100340.16;5102244;28;20056;-78
2023/01/03 11:46:35;;;;;;;3.00;1.98;;;;;;;6.75;100.00;100318.38;5088745;28;20488;-79
2023/01/03 11:49:20;;;;;;;4.47;1.80;;;;;;;6.98;100.00;100346.09;5087765;28;20040;-78
2023/01/03 11:51:59;;;;;;;2.25;1.90;;;;;;;6.97;100.00;100328.19;5088716;28;20044;-78
2023/01/03 11:54:49;;;;;;;4.68;1.88;;;;;;;7.12;100.00;100338.63;5087904;28;20295;-78
2023/01/03 11:57:24;;;;;;;3.95;1.85;;;;;;;7.20;100.00;100344.25;5092575;28;20043;-79
2023/01/03 12:00:02;;;;;;;2.53;1.67;;;;;;;7.14;100.00;100313.19;5101495;28;20066;-79
2023/01/03 12:02:55;;;;;;;1.92;1.65;;;;;;;7.35;100.00;100333.94;5111944;28;20059;-79
2023/01/03 12:05:48;;;;;;;6.32;1.83;;;;;;;7.30;100.00;100326.22;5112889;28;20089;-79
2023/01/03 12:08:40;;;;;;;4.70;1.70;;;;;;;7.38;100.00;100306.59;5112952;28;20055;-79
2023/01/03 12:11:16;;;;;;;1.92;1.17;;;;;;;7.53;100.00;100332.28;5112879;28;20547;-79
2023/01/03 12:13:51;;;;;;;3.40;1.58;;;;;;;7.41;100.00;100309.88;5111481;28;20043;-79
2023/01/03 12:16:24;;;;;;;7.07;1.52;;;;;;;7.43;100.00;100318.72;5110914;28;20048;-79
2023/01/03 12:18:56;;;;;;;3.60;1.50;;;;;;;7.36;100.00;100303.16;5111961;28;20054;-79
2023/01/03 12:21:34;;;;;;;4.25;1.50;;;;;;;7.46;100.00;100312.19;5112295;28;20039;-79
2023/01/03 12:24:07;;;;;;;4.70;1.42;;;;;;;7.63;100.00;100332.31;5112020;28;20052;-77
2023/01/03 12:26:36;;;;;;;1.65;1.13;;;;;;;7.66;100.00;100333.91;5112449;28;20062;-77
2023/01/03 12:29:12;;;;;;;8.23;1.20;;;;;;;7.58;100.00;100319.19;5112270;28;20079;-77
2023/01/03 12:31:45;;;;;;;1.90;1.27;;;;;;;7.59;100.00;100282.19;5109167;28;20732;-79
2023/01/03 12:34:24;;;;;;;5.78;1.30;;;;;;;7.74;100.00;100324.09;5111065;28;20090;-79
2023/01/03 12:36:59;;;;;;;2.20;1.00;;;;;;;7.72;100.00;100320.69;5112493;28;20060;-79
2023/01/03 12:39:37;;;;;;;4.25;1.13;;;;;;;7.82;100.00;100318.00;5112322;28;20788;-79
2023/01/03 12:42:14;;;;;;;2.58;1.02;;;;;;;7.62;100.00;100277.34;5111217;28;20052;-79
2023/01/03 12:44:42;;;;;;;1.85;1.00;;;;;;;7.71;100.00;100291.91;5112560;28;20058;-79